AirNav   Everest Fuels
 
 906 users online  

IL99 B & C Airport
Earlville, Illinois, USA

GOING TO EARLVILLE?


FAA INFORMATION EFFECTIVE 26 JANUARY 2023

Location

FAA Identifier: IL99
Lat/Long: 41-35-34.1110N 088-58-02.3000W
41-35.568517N 088-58.038333W
41.5928086,-88.9673056
(estimated)
Elevation: 715 ft. / 218 m (estimated)
Variation: 00W (1990)
From city: 2 miles W of EARLVILLE, IL
Time zone: UTC -6 (UTC -5 during Daylight Saving Time)
Zip code: 60518

Airport Operations

Airport use: Private use. Permission required prior to landing
Activation date: 08/1994
Control tower: no
ARTCC: CHICAGO CENTER
FSS: KANKAKEE FLIGHT SERVICE STATION
Attendance: UNATNDD
Wind indicator: yes
Segmented circle: no

Airport Communications

WX AWOS-3 at VYS (17 nm SW): 120.025 (815-223-8442)
WX AWOS-3 at RPJ (19 nm N): 125.2 (815-562-2955)

Nearby radio navigation aids

VOR radial/distance  VOR name  Freq  Var
JOTr273/29.3JOLIET VOR/DME112.3002E
DPAr235/32.9DUPAGE VOR/DME108.4002E
PLLr129/33.5POLO VOR/DME111.2003E
BDFr047/38.2BRADFORD VORTAC114.7000E

Airport Services

Runway Information

Runway 9/27

Dimensions: 2640 x 85 ft. / 805 x 26 m
Surface: turf
RUNWAY 9  RUNWAY 27
Traffic pattern: leftleft

Airport Ownership and Management from official FAA records

Ownership: Privately-owned
Owner: ROBERT M. DOUGHTY
1047 N 4550TH RD
EARLVILLE, IL 60518
Phone 815-866-9387
Manager: ROBERT M. DOUGHTY
1047 N 4550TH RD
EARLVILLE, IL 60518
Phone 815-866-9388

Airport Operational Statistics

Aircraft based on the field: 2
Single engine airplanes: 2
    
Aircraft operations: 50/year
100% local general aviation

Additional Remarks

FOR CD CTC CHICAGO ARTCC AT 630-906-8921.

Instrument Procedures

There are no published instrument procedures at IL99.

Some nearby airports with instrument procedures:

KVYS - Illinois Valley Regional Airport-Walter A Duncan Field (17 nm SW)
KRPJ - Rochelle Municipal Airport/Koritz Field (19 nm N)
KDKB - De Kalb Taylor Municipal Airport (24 nm NE)
KARR - Aurora Municipal Airport (25 nm NE)
C73 - Dixon Municipal Airport-Charles R. Walgreen Field (26 nm NW)
 
Loc | Ops | Rwys | IFR | FBO | Links
Com | Nav | Svcs | Stats | Notes
Area around IL99 (B & C Airport)
 
Road maps at: MapQuest Bing Google
 
Aerial photo
WARNING: Photo may not be current or correct
Aerial photo of IL99 (B & C Airport)
Taken in the Fall of 2003

Do you have a better or more recent aerial photo of B & C Airport that you would like to share? If so, please send us your photo.

 
Sectional chart

 
Airport distance calculator
Flying to B & C Airport? Find the distance to fly.

From to IL99

Sunrise and sunset
Times for 08-Feb-2023
 Local
(UTC-6)
 Zulu
(UTC)
Morning civil twilight06:3212:32
Sunrise07:0113:01
Sunset17:1923:19
Evening civil twilight17:4823:48

Current date and time
Zulu (UTC)  09-Feb-2023 04:28:09
Local (UTC-6)  08-Feb-2023 22:28:09
 
METAR
KVYS 
17nm SW 
090415Z AUTO 07007KT 10SM BKN030 BKN050 03/00 A2996 RMK AO2 T00260000
KRPJ 
18nm N 
090415Z AUTO 11010KT 7SM OVC080 01/01 A2996 RMK AO2 T00110005 TSNO
KDKB 
24nm NE 
090415Z AUTO 09007KT 10SM SCT100 01/00 A2998 RMK AO2 T00111003
KARR 
24nm NE 
090352Z AUTO 08005KT 6SM HZ BKN090 OVC110 02/M01 A2999 RMK AO2 SLP162 T00171011
KC09 
27nm E 
090415Z AUTO 10007KT 10SM -DZ 03/01 A2997 RMK AO2 T00260007
KSQI 
33nm W 
090356Z AUTO 08005KT 10SM OVC070 02/01 A2998 RMK AO2 SLP021 T00170006 FZRANO
TAF
KRFD 
37nm N 
082055Z 0821/0918 13006KT P6SM BKN200 FM090500 09008KT 6SM -RA OVC040 FM090700 07011G17KT 4SM -RA BR SCT009 OVC015 FM090900 06015G25KT 2SM RA BR OVC006 FM091600 03012G22KT 2SM -RASN BR OVC005
KDPA 
38nm NE 
082053Z 0821/0918 14006KT P6SM BKN200 FM090400 09008KT 6SM -RA OVC040 FM090700 06011KT 4SM -RA BR SCT009 OVC015 FM090900 07014G23KT 2SM RA BR OVC005 PROB30 0912/0915 -TSRA OVC005CB FM091500 21015G25KT 3SM -RA BR OVC005
NOTAMs
Click for the latest NOTAMs
NOTAMs are issued by the DoD/FAA and will open in a separate window not controlled by AirNav.

 

 
 

Would you like to see your business listed on this page?

 If your business provides an interesting product or service to pilots, flight crews, aircraft, or users of the B & C Airport, you should consider listing it here.  To start the listing process, click on the button below
 
Add a business
 

Other Pages about B & C Airport

Update a link
 
Copyright © AirNav, LLC. All rights reserved. Privacy Policy  Contact